Abidjan, Ivory Coast

7:52 AM GMT on May 28, 2015 (GMT +0000)
Felix Houphouet-Boigny | | Change Station
CLOSE
Current Station
Airport
Location: Abidjan,
Elevation: 26 ft
Nearby Weather Stations

Elev 26 ft 5.26 °N, 3.93 °W | Updated 22 minutes ago

Mostly Cloudy
Mostly Cloudy
79 °F
Feels Like 79 °F
N
4
Wind Variable Wind from NNW

Today
High -- | Low -- °F
--% Chance of Precip.
Yesterday
High -- | Low -- °F
Precip. -- in
6:01 AM 6:24 PM
Waxing Gibbous, 74% visible
Pressure 29.89 in
Visibility 5.0 miles
Clouds Mostly Cloudy 800 ft
Mostly Cloudy 2000 ft
Dew Point 77 °F
Humidity 94%
Rainfall 0.00 in
Snow Depth Not available.
UV 1 out of 12
Pollen Not available.
Air Quality Not available.
Flu Activity Not available.
METAR DIAP 280730Z 34003KT 8000 BKN008 BKN020 26/25 Q1012 TEMPO 2500 RA

More Conditions Fewer Conditions

Pressure 29.89 in
Visibility 5.0 miles
Clouds Mostly Cloudy 800 ft
Mostly Cloudy 2000 ft
Dew Point 77 °F
Humidity 94%
Rainfall 0.00 in
Snow Depth Not available.
UV 1 out of 12
Pollen Not available.
Air Quality Not available.
Flu Activity Not available.
METAR DIAP 280730Z 34003KT 8000 BKN008 BKN020 26/25 Q1012 TEMPO 2500 RA

More Conditions Fewer Conditions

10-Day Weather Forecast

Almanac

Astronomy

May. 28, 2015 Rise Set
Actual Time
Civil Twilight
Nautical Twilight
Astronomical Twilight
Moon
Length of Visible Light
Length of Day
Tomorrow will be .
, % of the Moon is Illuminated

Today's Extremes

Country Highs Country Lows

Community

WunderPhotos

Upload Photos

1,824,935 photos uploaded!

WunderBlogs® & News

Nearby

Air Quality

  Air Quality AQ Index Pollutant
Not available.

Snow Depth

Station Depth Elevation

Earthquake Activity

City Distance Mag. Time & Date
Minimum magnitude displayed is 2.5.

Coastal Water Temperatures

Place Temperature

Stations

Nearby Weather Stations

Station Location Temp. Windchill Dew Point Humidity Wind Precip. Elev Updated Type